Scotland, Maryland
Current Conditions -  °F | °C
As of 4:53 AM on Thursday 23 Oct 2014 (Local Time) from KNUI Reporting Station
Overcast Overcast  
Wind Chill: 53°   Ceiling: 3300
Heat Index: 53°   Visibility: 10mi
Dew Point: 41°   Wind: 13mph
Humidity: 64%   Direction: 310°NW
Pressure: 29.84"   Gusts: 22mph
Location:  38.09°N, 76.36°W
Report Text: KNUI 230853Z AUTO 31011G19KT 10SM OVC033 12/05 A2984 RMK AO2 SLP105 T01170050 55006
Loading
Personal Weather Stations






























Interactive Weather Map
Tropical Storm Tracking
New forecast layout! Learn more

10-Day Weather Forecast

Advertisements
Track Severe Weather on mobile